This is the latest recevied weather packets stored in our database for station/object KC3HIX. If no packets are shown the sender has not sent any weather packets the latest 10 day(s).
| Time | Temp. | Humidity | Pressure | Rain* | Wind** | Luminosity | Snow |
|---|---|---|---|---|---|---|---|
| 1778164225 | 15.56° C | 44% | 1012.3 hPa | 0 mm | - | - | - |
| 1778163304 | 16.67° C | 40% | 1012.7 hPa | 0 mm | - | - | - |
| 1778161804 | 17.78° C | 42% | 1012.7 hPa | 0 mm | - | - | - |
| 1778159404 | 17.22° C | 40% | 1013 hPa | 0 mm | - | - | - |
| 1778157304 | 16.11° C | 49% | 1013.4 hPa | 0 mm | - | - | - |
| 1778154303 | 10° C | 66% | 1013 hPa | 0 mm | - | - | - |
| 1778152803 | 7.78° C | 85% | 1012.7 hPa | 0 mm | - | - | - |
| 1778151903 | 6.67° C | 86% | 1012.7 hPa | 0 mm | - | - | - |
| 1778149803 | 7.22° C | 81% | 1012.3 hPa | 0 mm | - | - | - |
| 1778145027 | 8.89° C | 71% | 1011.7 hPa | 0 mm | - | - | - |
| 1778141406 | 10° C | 71% | 1011.3 hPa | 0 mm | - | - | - |
| 1778140806 | 10° C | 76% | 1011.3 hPa | 0 mm | - | - | - |
| 1778140506 | 10° C | 76% | 1011.3 hPa | 0 mm | - | - | - |
| 1778139006 | 10° C | 74% | 1011.7 hPa | 0 mm | - | - | - |
| 1778138427 | 10° C | 73% | 1011.7 hPa | 0 mm | - | - | - |
| 1778137806 | 10° C | 73% | 1011.7 hPa | 0 mm | - | - | - |
| 1778135406 | 10.56° C | 75% | 1011.7 hPa | 0 mm | - | - | - |
| 1778134506 | 11.11° C | 80% | 1011.7 hPa | 0 mm | - | - | - |
| 1778132705 | 11.11° C | 85% | 1011.7 hPa | 0 mm | - | - | - |
| 1778132426 | 11.11° C | 85% | 1011.7 hPa | 0 mm | - | - | - |
| 1778131805 | 11.11° C | 85% | 1011.7 hPa | 0 mm | - | - | - |
| 1778130905 | 11.11° C | 89% | 1011.7 hPa | 0 mm | - | - | - |
| 1778130626 | 11.11° C | 89% | 1012 hPa | 0 mm | - | - | - |
| 1778129726 | 11.11° C | 90% | 1011.3 hPa | 0 mm | - | - | - |
| 1778129426 | 11.11° C | 89% | 1011.7 hPa | 0 mm | - | - | - |
* Rain latest hour (hover to see other rain measurements)
** Current wind speed in m/s (hover to see current wind gust speed)